EZY37H UUWW-EBBR
Flight info
| Callsign | EZY37H |
|---|---|
| Flight time | 2h 59m |
| Altitude | 38000 |
| Route | POKAG3D POKAG N858 BENIM L29 LAFAT/N0444F380 DCT SUWGI T727 DENKO N858 SUBIX Z20 MAG Z92 ABGUS DCT BIGGE DCT LNO |
| Aircraft | A20N/M-SDE2E3FGHIRWXY/LB1 |
Departure
| Time | 2026-05-07 12:06 |
|---|---|
| Airport | Vnukovo International Airport (UUWW) |
Arrival
| Time | 2026-05-07 15:06 |
|---|---|
| Airport | Brussels Airport (EBBR) |
| Time | Latitude | Longitude | Altitude | Speed | Heading |
|---|---|---|---|---|---|
| 2026-05-07 11:52 | 55.60192 | 37.28364 | 681 ft | 0 kts | 320° |
| 2026-05-07 12:00 | 55.60191 | 37.28366 | 681 ft | 2 kts | 320° |
| 2026-05-07 12:00 | 55.60171 | 37.28391 | 681 ft | 4 kts | 336° |
| 2026-05-07 12:01 | 55.60145 | 37.28405 | 679 ft | 4 kts | 352° |
| 2026-05-07 12:01 | 55.60123 | 37.28409 | 681 ft | 1 kts | 356° |
| 2026-05-07 12:01 | 55.60119 | 37.28410 | 680 ft | 0 kts | 356° |
| 2026-05-07 12:03 | 55.60119 | 37.28411 | 680 ft | 1 kts | 1° |
| 2026-05-07 12:03 | 55.60129 | 37.28480 | 681 ft | 15 kts | 72° |
| 2026-05-07 12:03 | 55.60211 | 37.28655 | 685 ft | 19 kts | 72° |
| 2026-05-07 12:04 | 55.60142 | 37.28827 | 682 ft | 18 kts | 140° |
| 2026-05-07 12:04 | 55.60026 | 37.28901 | 681 ft | 18 kts | 167° |
| 2026-05-07 12:04 | 55.59900 | 37.28956 | 685 ft | 19 kts | 166° |
| 2026-05-07 12:04 | 55.59783 | 37.28918 | 682 ft | 18 kts | 245° |
| 2026-05-07 12:05 | 55.59775 | 37.28883 | 684 ft | 0 kts | 247° |
| 2026-05-07 12:05 | 55.59751 | 37.28777 | 684 ft | 36 kts | 249° |
| 2026-05-07 12:06 | 55.59569 | 37.27969 | 680 ft | 102 kts | 248° |
| 2026-05-07 12:06 | 55.59239 | 37.26505 | 682 ft | 152 kts | 248° |
| 2026-05-07 12:06 | 55.58798 | 37.24582 | 901 ft | 175 kts | 248° |
| 2026-05-07 12:06 | 55.58189 | 37.22663 | 1412 ft | 187 kts | 233° |
| 2026-05-07 12:07 | 55.57341 | 37.20792 | 1864 ft | 201 kts | 230° |
| 2026-05-07 12:07 | 55.56442 | 37.18904 | 2502 ft | 198 kts | 236° |
| 2026-05-07 12:07 | 55.55792 | 37.16817 | 3238 ft | 190 kts | 244° |
| 2026-05-07 12:07 | 55.55221 | 37.14749 | 3871 ft | 186 kts | 246° |
| 2026-05-07 12:08 | 55.54831 | 37.12534 | 4234 ft | 198 kts | 266° |
| 2026-05-07 12:08 | 55.54799 | 37.09969 | 4401 ft | 220 kts | 270° |
| 2026-05-07 12:08 | 55.54836 | 37.07149 | 4792 ft | 235 kts | 279° |
| 2026-05-07 12:08 | 55.55485 | 37.04521 | 5487 ft | 238 kts | 311° |
| 2026-05-07 12:09 | 55.56845 | 37.02843 | 6046 ft | 247 kts | 343° |
| 2026-05-07 12:09 | 55.58574 | 37.02561 | 6675 ft | 253 kts | 0° |
| 2026-05-07 12:09 | 55.60347 | 37.02579 | 7391 ft | 256 kts | 0° |
| 2026-05-07 12:09 | 55.62140 | 37.02597 | 8118 ft | 259 kts | 360° |
| 2026-05-07 12:10 | 55.63947 | 37.02484 | 8822 ft | 262 kts | 351° |
| 2026-05-07 12:10 | 55.65734 | 37.01605 | 9254 ft | 276 kts | 337° |
| 2026-05-07 12:10 | 55.67542 | 37.00272 | 9750 ft | 286 kts | 337° |
| 2026-05-07 12:10 | 55.69403 | 36.98891 | 9972 ft | 290 kts | 337° |
| 2026-05-07 12:11 | 55.71262 | 36.97513 | 10008 ft | 290 kts | 337° |
| 2026-05-07 12:11 | 55.73099 | 36.96155 | 10011 ft | 289 kts | 337° |
| 2026-05-07 12:11 | 55.74962 | 36.94764 | 10208 ft | 293 kts | 336° |
| 2026-05-07 12:11 | 55.76835 | 36.93331 | 10972 ft | 294 kts | 336° |
| 2026-05-07 12:12 | 55.78710 | 36.91855 | 11658 ft | 296 kts | 332° |
| 2026-05-07 12:12 | 55.80399 | 36.89755 | 12310 ft | 298 kts | 315° |
| 2026-05-07 12:12 | 55.81713 | 36.86868 | 12809 ft | 308 kts | 300° |
| 2026-05-07 12:12 | 55.82535 | 36.83264 | 13076 ft | 322 kts | 282° |
| 2026-05-07 12:13 | 55.82961 | 36.79318 | 13616 ft | 327 kts | 277° |
| 2026-05-07 12:13 | 55.83022 | 36.75251 | 13946 ft | 331 kts | 264° |
| 2026-05-07 12:13 | 55.82550 | 36.71245 | 14272 ft | 333 kts | 250° |
| 2026-05-07 12:13 | 55.81606 | 36.67483 | 14885 ft | 335 kts | 243° |
| 2026-05-07 12:14 | 55.80566 | 36.63762 | 15466 ft | 337 kts | 244° |
| 2026-05-07 12:14 | 55.79519 | 36.60005 | 16026 ft | 340 kts | 244° |
| 2026-05-07 12:14 | 55.78464 | 36.56226 | 16561 ft | 343 kts | 244° |
| 2026-05-07 12:14 | 55.77398 | 36.52415 | 17094 ft | 346 kts | 244° |
| 2026-05-07 12:15 | 55.76381 | 36.48528 | 17592 ft | 348 kts | 250° |
| 2026-05-07 12:15 | 55.75712 | 36.44395 | 17829 ft | 360 kts | 256° |
| 2026-05-07 12:15 | 55.75117 | 36.39989 | 18011 ft | 372 kts | 257° |
| 2026-05-07 12:15 | 55.74513 | 36.35489 | 18415 ft | 377 kts | 257° |
| 2026-05-07 12:16 | 55.73900 | 36.30945 | 18872 ft | 380 kts | 256° |
| 2026-05-07 12:16 | 55.73278 | 36.26368 | 19330 ft | 383 kts | 256° |
| 2026-05-07 12:16 | 55.72647 | 36.21763 | 19785 ft | 386 kts | 256° |
| 2026-05-07 12:16 | 55.72005 | 36.17120 | 20225 ft | 388 kts | 256° |
| 2026-05-07 12:17 | 55.71356 | 36.12452 | 20661 ft | 390 kts | 256° |
| 2026-05-07 12:17 | 55.70702 | 36.07769 | 21070 ft | 393 kts | 256° |
| 2026-05-07 12:17 | 55.70041 | 36.03059 | 21476 ft | 395 kts | 256° |
| 2026-05-07 12:17 | 55.69376 | 35.98315 | 21885 ft | 398 kts | 256° |
| 2026-05-07 12:18 | 55.68706 | 35.93530 | 22279 ft | 400 kts | 256° |
| 2026-05-07 12:18 | 55.68035 | 35.88735 | 22662 ft | 402 kts | 256° |
| 2026-05-07 12:18 | 55.67356 | 35.83902 | 23028 ft | 405 kts | 256° |
| 2026-05-07 12:18 | 55.66669 | 35.79058 | 23382 ft | 407 kts | 256° |
| 2026-05-07 12:19 | 55.65982 | 35.74247 | 23735 ft | 409 kts | 256° |
| 2026-05-07 12:19 | 55.65280 | 35.69348 | 24092 ft | 411 kts | 256° |
| 2026-05-07 12:19 | 55.64572 | 35.64428 | 24421 ft | 413 kts | 256° |
| 2026-05-07 12:19 | 55.63859 | 35.59483 | 24748 ft | 416 kts | 256° |
| 2026-05-07 12:20 | 55.63217 | 35.54490 | 25063 ft | 418 kts | 261° |
| 2026-05-07 12:20 | 55.62906 | 35.49363 | 25371 ft | 420 kts | 264° |
| 2026-05-07 12:20 | 55.62625 | 35.44218 | 25674 ft | 422 kts | 264° |
| 2026-05-07 12:20 | 55.62335 | 35.39039 | 25977 ft | 424 kts | 264° |
| 2026-05-07 12:21 | 55.62038 | 35.33839 | 26273 ft | 426 kts | 264° |
| 2026-05-07 12:21 | 55.61737 | 35.28620 | 26564 ft | 427 kts | 264° |
| 2026-05-07 12:21 | 55.61434 | 35.23372 | 26850 ft | 429 kts | 264° |
| 2026-05-07 12:21 | 55.61125 | 35.18112 | 27128 ft | 431 kts | 264° |
| 2026-05-07 12:22 | 55.60809 | 35.12819 | 27404 ft | 433 kts | 264° |
| 2026-05-07 12:22 | 55.60491 | 35.07512 | 27682 ft | 435 kts | 264° |
| 2026-05-07 12:22 | 55.60175 | 35.02185 | 27952 ft | 436 kts | 264° |
| 2026-05-07 12:22 | 55.59862 | 34.96843 | 28216 ft | 438 kts | 264° |
| 2026-05-07 12:23 | 55.59547 | 34.91473 | 28471 ft | 440 kts | 264° |
| 2026-05-07 12:23 | 55.59228 | 34.86085 | 28720 ft | 442 kts | 264° |
| 2026-05-07 12:23 | 55.58899 | 34.80669 | 28962 ft | 443 kts | 264° |
| 2026-05-07 12:23 | 55.58565 | 34.75242 | 29196 ft | 445 kts | 264° |
| 2026-05-07 12:24 | 55.58230 | 34.69870 | 29421 ft | 446 kts | 264° |
| 2026-05-07 12:24 | 55.57889 | 34.64408 | 29644 ft | 448 kts | 264° |
| 2026-05-07 12:24 | 55.57547 | 34.58928 | 29860 ft | 449 kts | 264° |
| 2026-05-07 12:24 | 55.57202 | 34.53438 | 30066 ft | 451 kts | 263° |
| 2026-05-07 12:25 | 55.56851 | 34.47919 | 30271 ft | 452 kts | 263° |
| 2026-05-07 12:25 | 55.56500 | 34.42390 | 30491 ft | 453 kts | 263° |
| 2026-05-07 12:25 | 55.56146 | 34.36865 | 30781 ft | 452 kts | 263° |
| 2026-05-07 12:25 | 55.55789 | 34.31354 | 31063 ft | 452 kts | 263° |
| 2026-05-07 12:26 | 55.55430 | 34.25842 | 31338 ft | 451 kts | 263° |
| 2026-05-07 12:26 | 55.55070 | 34.20337 | 31608 ft | 450 kts | 263° |
| 2026-05-07 12:26 | 55.54709 | 34.14850 | 31876 ft | 450 kts | 263° |
| 2026-05-07 12:26 | 55.54348 | 34.09365 | 32142 ft | 449 kts | 263° |
| 2026-05-07 12:27 | 55.53986 | 34.03890 | 32402 ft | 449 kts | 263° |
| 2026-05-07 12:27 | 55.53619 | 33.98415 | 32657 ft | 448 kts | 263° |
| 2026-05-07 12:27 | 55.53247 | 33.92955 | 32903 ft | 448 kts | 263° |
| 2026-05-07 12:27 | 55.52872 | 33.87496 | 33167 ft | 447 kts | 263° |
| 2026-05-07 12:28 | 55.52496 | 33.82040 | 33388 ft | 447 kts | 263° |
| 2026-05-07 12:28 | 55.52117 | 33.76599 | 33642 ft | 446 kts | 263° |
| 2026-05-07 12:28 | 55.51731 | 33.71163 | 33895 ft | 446 kts | 263° |
| 2026-05-07 12:28 | 55.51338 | 33.65741 | 34125 ft | 445 kts | 261° |
| 2026-05-07 12:29 | 55.50683 | 33.60401 | 34349 ft | 445 kts | 256° |
| 2026-05-07 12:29 | 55.49918 | 33.55101 | 34583 ft | 445 kts | 256° |
| 2026-05-07 12:29 | 55.49156 | 33.49829 | 34790 ft | 444 kts | 256° |
| 2026-05-07 12:29 | 55.48403 | 33.44622 | 35005 ft | 444 kts | 256° |
| 2026-05-07 12:30 | 55.47640 | 33.39348 | 35191 ft | 443 kts | 256° |
| 2026-05-07 12:30 | 55.46871 | 33.34096 | 35380 ft | 443 kts | 255° |
| 2026-05-07 12:30 | 55.46096 | 33.28839 | 35563 ft | 443 kts | 255° |
| 2026-05-07 12:30 | 55.45320 | 33.23593 | 35746 ft | 442 kts | 255° |
| 2026-05-07 12:31 | 55.44544 | 33.18356 | 35921 ft | 442 kts | 255° |
| 2026-05-07 12:31 | 55.43766 | 33.13124 | 36091 ft | 441 kts | 255° |
| 2026-05-07 12:31 | 55.42986 | 33.07898 | 36244 ft | 441 kts | 255° |
| 2026-05-07 12:31 | 55.42207 | 33.02677 | 36394 ft | 441 kts | 255° |
| 2026-05-07 12:32 | 55.41425 | 32.97446 | 36531 ft | 441 kts | 255° |
| 2026-05-07 12:32 | 55.40643 | 32.92226 | 36686 ft | 441 kts | 255° |
| 2026-05-07 12:32 | 55.39860 | 32.87009 | 36814 ft | 441 kts | 255° |
| 2026-05-07 12:32 | 55.39073 | 32.81799 | 36947 ft | 441 kts | 255° |
| 2026-05-07 12:33 | 55.37486 | 32.71379 | 37198 ft | 441 kts | 255° |
| 2026-05-07 12:33 | 55.36691 | 32.66171 | 37323 ft | 441 kts | 255° |
| 2026-05-07 12:33 | 55.35893 | 32.60963 | 37443 ft | 440 kts | 255° |
| 2026-05-07 12:34 | 55.35093 | 32.55758 | 37573 ft | 440 kts | 255° |
| 2026-05-07 12:34 | 55.34303 | 32.50630 | 37696 ft | 440 kts | 255° |
| 2026-05-07 12:34 | 55.33503 | 32.45448 | 37823 ft | 439 kts | 255° |
| 2026-05-07 12:34 | 55.32705 | 32.40289 | 37963 ft | 438 kts | 255° |
| 2026-05-07 12:35 | 55.31093 | 32.29919 | 38009 ft | 441 kts | 255° |
| 2026-05-07 12:35 | 55.29464 | 32.19534 | 38009 ft | 441 kts | 255° |
| 2026-05-07 12:36 | 55.27826 | 32.09163 | 38009 ft | 441 kts | 255° |
| 2026-05-07 12:36 | 55.26174 | 31.98775 | 38009 ft | 441 kts | 254° |
| 2026-05-07 12:37 | 55.24526 | 31.88460 | 38012 ft | 442 kts | 254° |
| 2026-05-07 12:37 | 55.22853 | 31.78071 | 38016 ft | 442 kts | 254° |
| 2026-05-07 12:38 | 55.21176 | 31.67709 | 38020 ft | 442 kts | 254° |
| 2026-05-07 12:38 | 55.19496 | 31.57346 | 38027 ft | 442 kts | 254° |
| 2026-05-07 12:39 | 55.17808 | 31.47000 | 38027 ft | 442 kts | 254° |
| 2026-05-07 12:39 | 55.16113 | 31.36726 | 38027 ft | 442 kts | 254° |
| 2026-05-07 12:40 | 55.14396 | 31.26394 | 38027 ft | 442 kts | 254° |
| 2026-05-07 12:40 | 55.12677 | 31.16062 | 38024 ft | 442 kts | 253° |
| 2026-05-07 12:41 | 55.10941 | 31.05744 | 38026 ft | 442 kts | 253° |
| 2026-05-07 12:41 | 55.10021 | 30.95176 | 38022 ft | 442 kts | 271° |
| 2026-05-07 12:42 | 55.10420 | 30.86287 | 38021 ft | 442 kts | 275° |
| 2026-05-07 12:42 | 55.10946 | 30.75593 | 38023 ft | 442 kts | 275° |
| 2026-05-07 12:43 | 55.11453 | 30.64885 | 38021 ft | 442 kts | 275° |
| 2026-05-07 12:43 | 55.11958 | 30.54183 | 38022 ft | 442 kts | 275° |
| 2026-05-07 12:44 | 55.12456 | 30.43455 | 38023 ft | 442 kts | 274° |
| 2026-05-07 12:44 | 55.12911 | 30.32726 | 38024 ft | 442 kts | 273° |
| 2026-05-07 12:45 | 55.13121 | 30.21982 | 38026 ft | 442 kts | 271° |
| 2026-05-07 12:45 | 55.13201 | 30.11243 | 38026 ft | 442 kts | 271° |
| 2026-05-07 12:46 | 55.13308 | 30.00553 | 38026 ft | 442 kts | 271° |
| 2026-05-07 12:46 | 55.13453 | 29.89811 | 38027 ft | 442 kts | 271° |
| 2026-05-07 12:47 | 55.13602 | 29.79068 | 38026 ft | 442 kts | 271° |
| 2026-05-07 12:47 | 55.13733 | 29.68317 | 38026 ft | 442 kts | 271° |
| 2026-05-07 12:48 | 55.13839 | 29.57577 | 38026 ft | 442 kts | 271° |
| 2026-05-07 12:48 | 55.13937 | 29.46840 | 38026 ft | 442 kts | 271° |
| 2026-05-07 12:49 | 55.14025 | 29.36084 | 38026 ft | 442 kts | 271° |
| 2026-05-07 12:49 | 55.14113 | 29.25348 | 38029 ft | 442 kts | 271° |
| 2026-05-07 12:50 | 55.14191 | 29.14600 | 38026 ft | 442 kts | 271° |
| 2026-05-07 12:50 | 55.14278 | 29.03861 | 38026 ft | 442 kts | 271° |
| 2026-05-07 12:51 | 55.14366 | 28.93185 | 38026 ft | 442 kts | 271° |
| 2026-05-07 12:51 | 55.14434 | 28.82437 | 38026 ft | 442 kts | 270° |
| 2026-05-07 12:52 | 55.14491 | 28.71694 | 38025 ft | 442 kts | 270° |
| 2026-05-07 12:52 | 55.14539 | 28.60958 | 38025 ft | 442 kts | 270° |
| 2026-05-07 12:53 | 55.14580 | 28.50217 | 38025 ft | 442 kts | 270° |
| 2026-05-07 12:53 | 55.14617 | 28.39473 | 38025 ft | 442 kts | 270° |
| 2026-05-07 12:54 | 55.14643 | 28.28724 | 38025 ft | 442 kts | 270° |
| 2026-05-07 12:54 | 55.14179 | 28.18036 | 38024 ft | 441 kts | 258° |
| 2026-05-07 12:55 | 55.12926 | 28.07541 | 38022 ft | 442 kts | 258° |
| 2026-05-07 12:55 | 55.11674 | 27.97019 | 38023 ft | 442 kts | 258° |
| 2026-05-07 12:56 | 55.10424 | 27.86493 | 38023 ft | 442 kts | 258° |
| 2026-05-07 12:56 | 55.09174 | 27.76059 | 38026 ft | 442 kts | 258° |
| 2026-05-07 12:57 | 55.07898 | 27.65556 | 38024 ft | 442 kts | 258° |
| 2026-05-07 12:57 | 55.06615 | 27.55057 | 38025 ft | 442 kts | 258° |
| 2026-05-07 12:58 | 55.05321 | 27.44562 | 38025 ft | 442 kts | 258° |
| 2026-05-07 12:58 | 55.04018 | 27.34082 | 38025 ft | 442 kts | 258° |
| 2026-05-07 12:59 | 55.02689 | 27.23621 | 38025 ft | 442 kts | 257° |
| 2026-05-07 12:59 | 55.01340 | 27.13162 | 38030 ft | 442 kts | 257° |
| 2026-05-07 13:00 | 55.00001 | 27.02782 | 38026 ft | 442 kts | 257° |
| 2026-05-07 13:00 | 54.98645 | 26.92335 | 38026 ft | 442 kts | 257° |
| 2026-05-07 13:01 | 54.97275 | 26.81897 | 38026 ft | 442 kts | 257° |
| 2026-05-07 13:01 | 54.95896 | 26.71464 | 38029 ft | 442 kts | 257° |
| 2026-05-07 13:02 | 54.94512 | 26.61021 | 38025 ft | 442 kts | 257° |
| 2026-05-07 13:02 | 54.93120 | 26.50613 | 38027 ft | 442 kts | 257° |
| 2026-05-07 13:03 | 54.91728 | 26.40273 | 38025 ft | 442 kts | 257° |
| 2026-05-07 13:03 | 54.90318 | 26.29858 | 38026 ft | 442 kts | 257° |
| 2026-05-07 13:04 | 54.88895 | 26.19451 | 38027 ft | 442 kts | 256° |
| 2026-05-07 13:04 | 54.87462 | 26.09073 | 38029 ft | 442 kts | 256° |
| 2026-05-07 13:05 | 54.86027 | 25.98697 | 38026 ft | 442 kts | 256° |
| 2026-05-07 13:05 | 54.84596 | 25.88394 | 38029 ft | 442 kts | 256° |
| 2026-05-07 13:06 | 54.83089 | 25.78061 | 38026 ft | 442 kts | 251° |
| 2026-05-07 13:06 | 54.80727 | 25.68223 | 38025 ft | 441 kts | 246° |
| 2026-05-07 13:07 | 54.78279 | 25.58467 | 38024 ft | 442 kts | 246° |
| 2026-05-07 13:07 | 54.75834 | 25.48708 | 38025 ft | 442 kts | 246° |
| 2026-05-07 13:08 | 54.73382 | 25.38949 | 38025 ft | 442 kts | 246° |
| 2026-05-07 13:08 | 54.70925 | 25.29209 | 38027 ft | 442 kts | 246° |
| 2026-05-07 13:09 | 54.68452 | 25.19485 | 38026 ft | 442 kts | 246° |
| 2026-05-07 13:09 | 54.65970 | 25.09778 | 38028 ft | 442 kts | 246° |
| 2026-05-07 13:10 | 54.63487 | 25.00065 | 38026 ft | 442 kts | 246° |
| 2026-05-07 13:10 | 54.61014 | 24.90435 | 38025 ft | 442 kts | 246° |
| 2026-05-07 13:11 | 54.58513 | 24.80755 | 38026 ft | 442 kts | 246° |
| 2026-05-07 13:11 | 54.56001 | 24.71083 | 38026 ft | 442 kts | 246° |
| 2026-05-07 13:12 | 54.53479 | 24.61417 | 38028 ft | 442 kts | 246° |
| 2026-05-07 13:12 | 54.50948 | 24.51759 | 38026 ft | 442 kts | 246° |
| 2026-05-07 13:13 | 54.48411 | 24.42130 | 38028 ft | 442 kts | 246° |
| 2026-05-07 13:13 | 54.45892 | 24.32574 | 38029 ft | 442 kts | 245° |
| 2026-05-07 13:14 | 54.43349 | 24.22959 | 38027 ft | 442 kts | 245° |
| 2026-05-07 13:14 | 54.40794 | 24.13362 | 38026 ft | 442 kts | 245° |
| 2026-05-07 13:15 | 54.38228 | 24.03777 | 38028 ft | 442 kts | 245° |
| 2026-05-07 13:15 | 54.35652 | 23.94210 | 38029 ft | 442 kts | 245° |
| 2026-05-07 13:16 | 54.33069 | 23.84657 | 38027 ft | 442 kts | 245° |
| 2026-05-07 13:16 | 54.30485 | 23.75107 | 38030 ft | 442 kts | 245° |
| 2026-05-07 13:17 | 54.27907 | 23.65569 | 38030 ft | 442 kts | 245° |
| 2026-05-07 13:17 | 54.25323 | 23.56087 | 38027 ft | 442 kts | 245° |
| 2026-05-07 13:18 | 54.22710 | 23.46581 | 38029 ft | 442 kts | 245° |
| 2026-05-07 13:18 | 54.20091 | 23.37081 | 38029 ft | 442 kts | 245° |
| 2026-05-07 13:19 | 54.17462 | 23.27590 | 38027 ft | 442 kts | 245° |
| 2026-05-07 13:19 | 54.14829 | 23.18120 | 38027 ft | 442 kts | 245° |
| 2026-05-07 13:20 | 54.12194 | 23.08656 | 38027 ft | 442 kts | 245° |
| 2026-05-07 13:20 | 54.09552 | 22.99207 | 38030 ft | 442 kts | 244° |
| 2026-05-07 13:21 | 54.07005 | 22.89680 | 38026 ft | 441 kts | 252° |
| 2026-05-07 13:21 | 54.05491 | 22.79636 | 38025 ft | 441 kts | 256° |
| 2026-05-07 13:22 | 54.04021 | 22.69500 | 38025 ft | 441 kts | 256° |
| 2026-05-07 13:22 | 54.02531 | 22.59353 | 38029 ft | 442 kts | 256° |
| 2026-05-07 13:23 | 54.01040 | 22.49228 | 38027 ft | 442 kts | 256° |
| 2026-05-07 13:23 | 53.99536 | 22.39099 | 38031 ft | 442 kts | 256° |
| 2026-05-07 13:24 | 53.98029 | 22.28981 | 38028 ft | 442 kts | 256° |
| 2026-05-07 13:24 | 53.96522 | 22.18856 | 38028 ft | 442 kts | 256° |
| 2026-05-07 13:25 | 53.94999 | 22.08753 | 38032 ft | 442 kts | 256° |
| 2026-05-07 13:25 | 53.93464 | 21.98656 | 38028 ft | 442 kts | 255° |
| 2026-05-07 13:26 | 53.91925 | 21.88550 | 38029 ft | 442 kts | 255° |
| 2026-05-07 13:26 | 53.90391 | 21.78532 | 38029 ft | 442 kts | 255° |
| 2026-05-07 13:27 | 53.88834 | 21.68458 | 38029 ft | 442 kts | 255° |
| 2026-05-07 13:27 | 53.87265 | 21.58392 | 38032 ft | 442 kts | 255° |
| 2026-05-07 13:28 | 53.85690 | 21.48328 | 38029 ft | 442 kts | 255° |
| 2026-05-07 13:28 | 53.84112 | 21.38276 | 38028 ft | 442 kts | 255° |
| 2026-05-07 13:29 | 53.82519 | 21.28232 | 38032 ft | 442 kts | 255° |
| 2026-05-07 13:29 | 53.80925 | 21.18186 | 38028 ft | 442 kts | 255° |
| 2026-05-07 13:30 | 53.79331 | 21.08217 | 38029 ft | 442 kts | 255° |
| 2026-05-07 13:30 | 53.77706 | 20.98130 | 38031 ft | 442 kts | 255° |
| 2026-05-07 13:31 | 53.76090 | 20.88169 | 38028 ft | 442 kts | 255° |
| 2026-05-07 13:31 | 53.74462 | 20.78160 | 38029 ft | 442 kts | 255° |
| 2026-05-07 13:32 | 53.72827 | 20.68155 | 38029 ft | 442 kts | 255° |
| 2026-05-07 13:32 | 53.71468 | 20.59847 | 38031 ft | 442 kts | 254° |
| 2026-05-07 13:33 | 53.69812 | 20.49856 | 38030 ft | 442 kts | 254° |
| 2026-05-07 13:33 | 53.68147 | 20.39876 | 38031 ft | 442 kts | 254° |
| 2026-05-07 13:34 | 53.65648 | 20.24919 | 38029 ft | 442 kts | 254° |
| 2026-05-07 13:35 | 53.63966 | 20.14962 | 38029 ft | 442 kts | 254° |
| 2026-05-07 13:35 | 53.62276 | 20.05005 | 38036 ft | 442 kts | 254° |
| 2026-05-07 13:36 | 53.60575 | 19.95057 | 38030 ft | 442 kts | 254° |
| 2026-05-07 13:36 | 53.58869 | 19.85118 | 38029 ft | 442 kts | 254° |
| 2026-05-07 13:37 | 53.57167 | 19.75254 | 38029 ft | 442 kts | 253° |
| 2026-05-07 13:37 | 53.55440 | 19.65331 | 38030 ft | 442 kts | 253° |
| 2026-05-07 13:38 | 53.53713 | 19.55427 | 38029 ft | 442 kts | 253° |
| 2026-05-07 13:38 | 53.51974 | 19.45529 | 38030 ft | 441 kts | 253° |
| 2026-05-07 13:39 | 53.50221 | 19.35636 | 38033 ft | 441 kts | 253° |
| 2026-05-07 13:39 | 53.48470 | 19.25746 | 38029 ft | 441 kts | 253° |
| 2026-05-07 13:40 | 53.46717 | 19.15879 | 38029 ft | 441 kts | 253° |
| 2026-05-07 13:40 | 53.44940 | 19.06020 | 38034 ft | 441 kts | 253° |
| 2026-05-07 13:41 | 53.43170 | 18.96228 | 38033 ft | 441 kts | 253° |
| 2026-05-07 13:41 | 53.41387 | 18.86370 | 38029 ft | 441 kts | 253° |
| 2026-05-07 13:42 | 53.39606 | 18.76534 | 38031 ft | 441 kts | 253° |
| 2026-05-07 13:42 | 53.37808 | 18.66696 | 38029 ft | 441 kts | 253° |
| 2026-05-07 13:43 | 53.35996 | 18.56877 | 38031 ft | 441 kts | 253° |
| 2026-05-07 13:43 | 53.34186 | 18.47114 | 38032 ft | 441 kts | 253° |
| 2026-05-07 13:44 | 53.32361 | 18.37312 | 38029 ft | 441 kts | 253° |
| 2026-05-07 13:44 | 53.30535 | 18.27521 | 38029 ft | 441 kts | 252° |
| 2026-05-07 13:45 | 53.28694 | 18.17740 | 38031 ft | 441 kts | 252° |
| 2026-05-07 13:45 | 53.26841 | 18.07970 | 38032 ft | 441 kts | 252° |
| 2026-05-07 13:46 | 53.24985 | 17.98207 | 38034 ft | 441 kts | 252° |
| 2026-05-07 13:46 | 53.23120 | 17.88438 | 38029 ft | 441 kts | 252° |
| 2026-05-07 13:47 | 53.21252 | 17.78686 | 38029 ft | 441 kts | 252° |
| 2026-05-07 13:47 | 53.19366 | 17.68946 | 38032 ft | 441 kts | 252° |
| 2026-05-07 13:48 | 53.17473 | 17.59213 | 38029 ft | 441 kts | 252° |
| 2026-05-07 13:48 | 53.15574 | 17.49490 | 38029 ft | 441 kts | 252° |
| 2026-05-07 13:49 | 53.13674 | 17.39773 | 38029 ft | 441 kts | 252° |
| 2026-05-07 13:49 | 53.11782 | 17.30118 | 38032 ft | 441 kts | 252° |
| 2026-05-07 13:50 | 53.09865 | 17.20408 | 38031 ft | 441 kts | 252° |
| 2026-05-07 13:50 | 53.07933 | 17.10723 | 38032 ft | 441 kts | 252° |
| 2026-05-07 13:51 | 53.06001 | 17.01041 | 38029 ft | 441 kts | 251° |
| 2026-05-07 13:51 | 53.04056 | 16.91371 | 38029 ft | 441 kts | 251° |
| 2026-05-07 13:52 | 53.02115 | 16.81775 | 38029 ft | 441 kts | 251° |
| 2026-05-07 13:52 | 53.00161 | 16.72121 | 38031 ft | 441 kts | 251° |
| 2026-05-07 13:53 | 52.98198 | 16.62483 | 38029 ft | 441 kts | 251° |
| 2026-05-07 13:53 | 52.96227 | 16.52849 | 38029 ft | 441 kts | 251° |
| 2026-05-07 13:54 | 52.94249 | 16.43222 | 38029 ft | 441 kts | 251° |
| 2026-05-07 13:54 | 52.92262 | 16.33600 | 38033 ft | 441 kts | 251° |
| 2026-05-07 13:55 | 52.90265 | 16.23997 | 38031 ft | 441 kts | 251° |
| 2026-05-07 13:55 | 52.88259 | 16.14399 | 38034 ft | 441 kts | 251° |
| 2026-05-07 13:56 | 52.86245 | 16.04814 | 38029 ft | 441 kts | 251° |
| 2026-05-07 13:56 | 52.84223 | 15.95244 | 38030 ft | 441 kts | 251° |
| 2026-05-07 13:57 | 52.82194 | 15.85684 | 38029 ft | 441 kts | 250° |
| 2026-05-07 13:57 | 52.79437 | 15.76662 | 38028 ft | 440 kts | 240° |
| 2026-05-07 13:58 | 52.76412 | 15.67856 | 38029 ft | 440 kts | 240° |
| 2026-05-07 13:58 | 52.73400 | 15.59125 | 38028 ft | 440 kts | 240° |
| 2026-05-07 13:59 | 52.70361 | 15.50350 | 38028 ft | 441 kts | 240° |
| 2026-05-07 13:59 | 52.67326 | 15.41583 | 38031 ft | 441 kts | 240° |
| 2026-05-07 14:00 | 52.64278 | 15.32818 | 38032 ft | 441 kts | 240° |
| 2026-05-07 14:00 | 52.61216 | 15.24077 | 38029 ft | 441 kts | 240° |
| 2026-05-07 14:01 | 52.58152 | 15.15345 | 38029 ft | 441 kts | 240° |
| 2026-05-07 14:01 | 52.55088 | 15.06626 | 38029 ft | 441 kts | 240° |
| 2026-05-07 14:02 | 52.52011 | 14.97912 | 38031 ft | 441 kts | 240° |
| 2026-05-07 14:02 | 52.48925 | 14.89217 | 38029 ft | 441 kts | 240° |
| 2026-05-07 14:03 | 52.45838 | 14.80529 | 38032 ft | 441 kts | 240° |
| 2026-05-07 14:03 | 52.42747 | 14.71852 | 38029 ft | 441 kts | 239° |
| 2026-05-07 14:04 | 52.39658 | 14.63249 | 38031 ft | 441 kts | 240° |
| 2026-05-07 14:04 | 52.37395 | 14.53988 | 38027 ft | 440 kts | 258° |
| 2026-05-07 14:05 | 52.36188 | 14.44180 | 38025 ft | 440 kts | 258° |
| 2026-05-07 14:05 | 52.34943 | 14.34376 | 38028 ft | 440 kts | 258° |
| 2026-05-07 14:06 | 52.33686 | 14.24569 | 38027 ft | 440 kts | 258° |
| 2026-05-07 14:06 | 52.32424 | 14.14778 | 38032 ft | 440 kts | 258° |
| 2026-05-07 14:07 | 52.31159 | 14.04975 | 38028 ft | 440 kts | 258° |
| 2026-05-07 14:07 | 52.29881 | 13.95184 | 38028 ft | 440 kts | 258° |
| 2026-05-07 14:08 | 52.28586 | 13.85400 | 38028 ft | 440 kts | 258° |
| 2026-05-07 14:08 | 52.27286 | 13.75633 | 38028 ft | 440 kts | 258° |
| 2026-05-07 14:09 | 52.25987 | 13.65852 | 38028 ft | 440 kts | 258° |
| 2026-05-07 14:09 | 52.24695 | 13.56148 | 38028 ft | 440 kts | 258° |
| 2026-05-07 14:10 | 52.23382 | 13.46385 | 38031 ft | 440 kts | 257° |
| 2026-05-07 14:10 | 52.22056 | 13.36618 | 38028 ft | 440 kts | 257° |
| 2026-05-07 14:11 | 52.20721 | 13.26865 | 38028 ft | 440 kts | 257° |
| 2026-05-07 14:11 | 52.19388 | 13.17119 | 38028 ft | 440 kts | 257° |
| 2026-05-07 14:12 | 52.18041 | 13.07380 | 38031 ft | 440 kts | 257° |
| 2026-05-07 14:12 | 52.16683 | 12.97655 | 38028 ft | 440 kts | 257° |
| 2026-05-07 14:13 | 52.15334 | 12.87981 | 38028 ft | 441 kts | 257° |
| 2026-05-07 14:13 | 52.13965 | 12.78258 | 38032 ft | 441 kts | 257° |
| 2026-05-07 14:14 | 52.12576 | 12.68534 | 38028 ft | 441 kts | 257° |
| 2026-05-07 14:14 | 52.11190 | 12.58827 | 38027 ft | 441 kts | 257° |
| 2026-05-07 14:15 | 52.09793 | 12.49107 | 38028 ft | 441 kts | 257° |
| 2026-05-07 14:15 | 52.08378 | 12.39400 | 38028 ft | 441 kts | 257° |
| 2026-05-07 14:16 | 52.06959 | 12.29691 | 38027 ft | 441 kts | 257° |
| 2026-05-07 14:16 | 52.05545 | 12.19987 | 38030 ft | 441 kts | 257° |
| 2026-05-07 14:17 | 52.04122 | 12.10292 | 38028 ft | 441 kts | 256° |
| 2026-05-07 14:17 | 52.02693 | 12.00662 | 38031 ft | 441 kts | 256° |
| 2026-05-07 14:18 | 52.01239 | 11.90970 | 38033 ft | 441 kts | 256° |
| 2026-05-07 14:18 | 51.99776 | 11.81304 | 38029 ft | 441 kts | 256° |
| 2026-05-07 14:19 | 51.98254 | 11.71665 | 38028 ft | 441 kts | 255° |
| 2026-05-07 14:19 | 51.96598 | 11.62095 | 38027 ft | 441 kts | 254° |
| 2026-05-07 14:20 | 51.94921 | 11.52527 | 38027 ft | 441 kts | 254° |
| 2026-05-07 14:20 | 51.93268 | 11.43022 | 38028 ft | 441 kts | 254° |
| 2026-05-07 14:21 | 51.91615 | 11.33452 | 38028 ft | 441 kts | 254° |
| 2026-05-07 14:21 | 51.89954 | 11.23870 | 38026 ft | 441 kts | 254° |
| 2026-05-07 14:22 | 51.88279 | 11.14308 | 38027 ft | 441 kts | 254° |
| 2026-05-07 14:22 | 51.86602 | 11.04758 | 38027 ft | 441 kts | 254° |
| 2026-05-07 14:23 | 51.85123 | 10.96854 | 38029 ft | 441 kts | 252° |
| 2026-05-07 14:23 | 51.83256 | 10.87402 | 38029 ft | 442 kts | 252° |
| 2026-05-07 14:24 | 51.81379 | 10.77947 | 38022 ft | 442 kts | 252° |
| 2026-05-07 14:24 | 51.79513 | 10.68455 | 38021 ft | 443 kts | 252° |
| 2026-05-07 14:25 | 51.77641 | 10.58963 | 38009 ft | 444 kts | 252° |
| 2026-05-07 14:25 | 51.75758 | 10.49462 | 38012 ft | 445 kts | 252° |
| 2026-05-07 14:26 | 51.73871 | 10.39956 | 38020 ft | 445 kts | 252° |
| 2026-05-07 14:26 | 51.71985 | 10.30512 | 38029 ft | 445 kts | 252° |
| 2026-05-07 14:27 | 51.70066 | 10.21018 | 38031 ft | 444 kts | 252° |
| 2026-05-07 14:27 | 51.68150 | 10.11563 | 38033 ft | 443 kts | 252° |
| 2026-05-07 14:28 | 51.66232 | 10.02122 | 38032 ft | 443 kts | 252° |
| 2026-05-07 14:28 | 51.64307 | 9.92708 | 38035 ft | 442 kts | 252° |
| 2026-05-07 14:29 | 51.62393 | 9.83375 | 38031 ft | 442 kts | 252° |
| 2026-05-07 14:29 | 51.60460 | 9.73987 | 38025 ft | 442 kts | 252° |
| 2026-05-07 14:30 | 51.58520 | 9.64609 | 38028 ft | 442 kts | 251° |
| 2026-05-07 14:30 | 51.56566 | 9.55224 | 38024 ft | 442 kts | 251° |
| 2026-05-07 14:31 | 51.54606 | 9.45853 | 38026 ft | 442 kts | 251° |
| 2026-05-07 14:31 | 51.52635 | 9.36484 | 38028 ft | 442 kts | 251° |
| 2026-05-07 14:32 | 51.50666 | 9.27127 | 38025 ft | 442 kts | 251° |
| 2026-05-07 14:32 | 51.48692 | 9.17790 | 38025 ft | 442 kts | 251° |
| 2026-05-07 14:33 | 51.46722 | 9.08511 | 38026 ft | 442 kts | 251° |
| 2026-05-07 14:33 | 51.44720 | 8.99176 | 38024 ft | 442 kts | 251° |
| 2026-05-07 14:34 | 51.42714 | 8.89860 | 38024 ft | 442 kts | 251° |
| 2026-05-07 14:34 | 51.40702 | 8.80536 | 38021 ft | 443 kts | 251° |
| 2026-05-07 14:35 | 51.38677 | 8.71212 | 38023 ft | 443 kts | 251° |
| 2026-05-07 14:35 | 51.36655 | 8.61969 | 38020 ft | 443 kts | 251° |
| 2026-05-07 14:36 | 51.34615 | 8.52651 | 38021 ft | 443 kts | 251° |
| 2026-05-07 14:36 | 51.32566 | 8.43353 | 38020 ft | 443 kts | 250° |
| 2026-05-07 14:37 | 51.30333 | 8.34164 | 38025 ft | 444 kts | 248° |
| 2026-05-07 14:37 | 51.26735 | 8.20544 | 38024 ft | 443 kts | 247° |
| 2026-05-07 14:38 | 51.24351 | 8.11458 | 38025 ft | 443 kts | 248° |
| 2026-05-07 14:38 | 51.21996 | 8.02367 | 38023 ft | 443 kts | 248° |
| 2026-05-07 14:39 | 51.19631 | 7.93284 | 38025 ft | 443 kts | 247° |
| 2026-05-07 14:39 | 51.17252 | 7.84217 | 38026 ft | 443 kts | 247° |
| 2026-05-07 14:40 | 51.14862 | 7.75153 | 38025 ft | 443 kts | 247° |
| 2026-05-07 14:40 | 51.12464 | 7.66104 | 38020 ft | 444 kts | 247° |
| 2026-05-07 14:41 | 51.10083 | 7.57120 | 37741 ft | 443 kts | 247° |
| 2026-05-07 14:41 | 51.08884 | 7.52615 | 37485 ft | 442 kts | 247° |
| 2026-05-07 14:41 | 51.07685 | 7.48117 | 37155 ft | 441 kts | 247° |
| 2026-05-07 14:42 | 51.06490 | 7.43637 | 36572 ft | 439 kts | 247° |
| 2026-05-07 14:42 | 51.05297 | 7.39178 | 36016 ft | 437 kts | 247° |
| 2026-05-07 14:42 | 51.04110 | 7.34744 | 35496 ft | 434 kts | 247° |
| 2026-05-07 14:42 | 51.02930 | 7.30343 | 34977 ft | 431 kts | 247° |
| 2026-05-07 14:43 | 51.01756 | 7.25977 | 34453 ft | 428 kts | 247° |
| 2026-05-07 14:43 | 51.00581 | 7.21652 | 33997 ft | 425 kts | 247° |
| 2026-05-07 14:43 | 50.99417 | 7.17359 | 33742 ft | 422 kts | 247° |
| 2026-05-07 14:43 | 50.98255 | 7.13074 | 33499 ft | 421 kts | 247° |
| 2026-05-07 14:44 | 50.97098 | 7.08814 | 33246 ft | 419 kts | 247° |
| 2026-05-07 14:44 | 50.95952 | 7.04588 | 33001 ft | 417 kts | 247° |
| 2026-05-07 14:44 | 50.94810 | 7.00377 | 32748 ft | 415 kts | 247° |
| 2026-05-07 14:44 | 50.93683 | 6.96232 | 32501 ft | 413 kts | 246° |
| 2026-05-07 14:45 | 50.92545 | 6.92061 | 32250 ft | 411 kts | 246° |
| 2026-05-07 14:45 | 50.91408 | 6.87910 | 32001 ft | 410 kts | 246° |
| 2026-05-07 14:45 | 50.90275 | 6.83778 | 31750 ft | 408 kts | 246° |
| 2026-05-07 14:45 | 50.89143 | 6.79663 | 31500 ft | 407 kts | 246° |
| 2026-05-07 14:46 | 50.88015 | 6.75567 | 31250 ft | 405 kts | 246° |
| 2026-05-07 14:46 | 50.86891 | 6.71493 | 30997 ft | 403 kts | 246° |
| 2026-05-07 14:46 | 50.85774 | 6.67445 | 30585 ft | 400 kts | 246° |
| 2026-05-07 14:46 | 50.84663 | 6.63426 | 30122 ft | 396 kts | 246° |
| 2026-05-07 14:47 | 50.83562 | 6.59446 | 29652 ft | 393 kts | 246° |
| 2026-05-07 14:47 | 50.82465 | 6.55482 | 29138 ft | 393 kts | 246° |
| 2026-05-07 14:47 | 50.81366 | 6.51525 | 28563 ft | 393 kts | 246° |
| 2026-05-07 14:47 | 50.80267 | 6.47573 | 27983 ft | 392 kts | 246° |
| 2026-05-07 14:48 | 50.79165 | 6.43624 | 27411 ft | 392 kts | 246° |
| 2026-05-07 14:48 | 50.78066 | 6.39692 | 26835 ft | 391 kts | 246° |
| 2026-05-07 14:48 | 50.76965 | 6.35764 | 26258 ft | 390 kts | 246° |
| 2026-05-07 14:48 | 50.75865 | 6.31850 | 25675 ft | 390 kts | 246° |
| 2026-05-07 14:49 | 50.74766 | 6.27944 | 25103 ft | 389 kts | 246° |
| 2026-05-07 14:49 | 50.73669 | 6.24046 | 24528 ft | 387 kts | 246° |
| 2026-05-07 14:49 | 50.72575 | 6.20161 | 23942 ft | 386 kts | 246° |
| 2026-05-07 14:49 | 50.71488 | 6.16299 | 23378 ft | 385 kts | 246° |
| 2026-05-07 14:50 | 50.70400 | 6.12440 | 22795 ft | 384 kts | 246° |
| 2026-05-07 14:50 | 50.69315 | 6.08599 | 22209 ft | 383 kts | 246° |
| 2026-05-07 14:50 | 50.68244 | 6.04816 | 21652 ft | 382 kts | 246° |
| 2026-05-07 14:50 | 50.67159 | 6.00996 | 21069 ft | 382 kts | 246° |
| 2026-05-07 14:51 | 50.66072 | 5.97170 | 20500 ft | 381 kts | 246° |
| 2026-05-07 14:51 | 50.64987 | 5.93364 | 19922 ft | 381 kts | 246° |
| 2026-05-07 14:51 | 50.63912 | 5.89565 | 19346 ft | 380 kts | 246° |
| 2026-05-07 14:51 | 50.62836 | 5.85757 | 18771 ft | 379 kts | 246° |
| 2026-05-07 14:52 | 50.61762 | 5.81964 | 18185 ft | 379 kts | 246° |
| 2026-05-07 14:52 | 50.60680 | 5.78190 | 17612 ft | 378 kts | 246° |
| 2026-05-07 14:52 | 50.59928 | 5.74247 | 17033 ft | 377 kts | 263° |
| 2026-05-07 14:52 | 50.60037 | 5.70160 | 16446 ft | 375 kts | 283° |
| 2026-05-07 14:53 | 50.61011 | 5.66370 | 15878 ft | 375 kts | 302° |
| 2026-05-07 14:53 | 50.62587 | 5.63114 | 15309 ft | 373 kts | 309° |
| 2026-05-07 14:53 | 50.64196 | 5.59970 | 14734 ft | 373 kts | 309° |
| 2026-05-07 14:53 | 50.65824 | 5.56797 | 14157 ft | 372 kts | 309° |
| 2026-05-07 14:54 | 50.67445 | 5.53634 | 13583 ft | 371 kts | 309° |
| 2026-05-07 14:54 | 50.69062 | 5.50464 | 13002 ft | 369 kts | 308° |
| 2026-05-07 14:54 | 50.70661 | 5.47312 | 12426 ft | 367 kts | 308° |
| 2026-05-07 14:54 | 50.72252 | 5.44165 | 11851 ft | 365 kts | 308° |
| 2026-05-07 14:55 | 50.73827 | 5.41043 | 11271 ft | 363 kts | 308° |
| 2026-05-07 14:55 | 50.75388 | 5.37944 | 10695 ft | 360 kts | 308° |
| 2026-05-07 14:55 | 50.76928 | 5.34888 | 10109 ft | 347 kts | 308° |
| 2026-05-07 14:55 | 50.78396 | 5.31968 | 9538 ft | 332 kts | 308° |
| 2026-05-07 14:56 | 50.79802 | 5.29169 | 8966 ft | 319 kts | 308° |
| 2026-05-07 14:56 | 50.81160 | 5.26466 | 8384 ft | 308 kts | 308° |
| 2026-05-07 14:56 | 50.82472 | 5.23851 | 7809 ft | 299 kts | 308° |
| 2026-05-07 14:56 | 50.83747 | 5.21302 | 7239 ft | 291 kts | 308° |
| 2026-05-07 14:57 | 50.84954 | 5.18885 | 6941 ft | 276 kts | 308° |
| 2026-05-07 14:57 | 50.86141 | 5.16513 | 6821 ft | 275 kts | 308° |
| 2026-05-07 14:57 | 50.87327 | 5.14145 | 6692 ft | 274 kts | 308° |
| 2026-05-07 14:57 | 50.88401 | 5.11657 | 6568 ft | 273 kts | 302° |
| 2026-05-07 14:58 | 50.89413 | 5.09136 | 6233 ft | 271 kts | 302° |
| 2026-05-07 14:58 | 50.90423 | 5.06621 | 5827 ft | 269 kts | 302° |
| 2026-05-07 14:58 | 50.91427 | 5.04123 | 5435 ft | 268 kts | 302° |
| 2026-05-07 14:58 | 50.92425 | 5.01638 | 5037 ft | 266 kts | 302° |
| 2026-05-07 14:59 | 50.93416 | 4.99170 | 4656 ft | 265 kts | 302° |
| 2026-05-07 14:59 | 50.94395 | 4.96728 | 4424 ft | 257 kts | 302° |
| 2026-05-07 14:59 | 50.95333 | 4.94385 | 4215 ft | 248 kts | 302° |
| 2026-05-07 14:59 | 50.96244 | 4.92106 | 3811 ft | 241 kts | 302° |
| 2026-05-07 15:00 | 50.97101 | 4.89868 | 3408 ft | 233 kts | 294° |
| 2026-05-07 15:00 | 50.97527 | 4.87436 | 3015 ft | 226 kts | 273° |
| 2026-05-07 15:00 | 50.97410 | 4.85088 | 2922 ft | 199 kts | 255° |
| 2026-05-07 15:00 | 50.96968 | 4.83056 | 2925 ft | 190 kts | 250° |
| 2026-05-07 15:01 | 50.96523 | 4.81139 | 2947 ft | 186 kts | 250° |
| 2026-05-07 15:01 | 50.96084 | 4.79229 | 2978 ft | 184 kts | 250° |
| 2026-05-07 15:01 | 50.95646 | 4.77330 | 2940 ft | 183 kts | 250° |
| 2026-05-07 15:01 | 50.95204 | 4.75430 | 2943 ft | 183 kts | 250° |
| 2026-05-07 15:02 | 50.94773 | 4.73584 | 2943 ft | 183 kts | 250° |
| 2026-05-07 15:02 | 50.94338 | 4.71689 | 2933 ft | 183 kts | 250° |
| 2026-05-07 15:02 | 50.93906 | 4.69798 | 2931 ft | 183 kts | 250° |
| 2026-05-07 15:02 | 50.93499 | 4.68016 | 2921 ft | 160 kts | 250° |
| 2026-05-07 15:03 | 50.93135 | 4.66404 | 2739 ft | 152 kts | 251° |
| 2026-05-07 15:03 | 50.92777 | 4.64843 | 2426 ft | 148 kts | 250° |
| 2026-05-07 15:03 | 50.92424 | 4.63336 | 2145 ft | 145 kts | 250° |
| 2026-05-07 15:03 | 50.92082 | 4.61834 | 1835 ft | 145 kts | 250° |
| 2026-05-07 15:04 | 50.91746 | 4.60319 | 1464 ft | 146 kts | 250° |
| 2026-05-07 15:04 | 50.91389 | 4.58847 | 1145 ft | 143 kts | 250° |
| 2026-05-07 15:04 | 50.91068 | 4.57369 | 927 ft | 141 kts | 252° |
| 2026-05-07 15:04 | 50.90743 | 4.55906 | 699 ft | 140 kts | 248° |
| 2026-05-07 15:05 | 50.90379 | 4.54471 | 504 ft | 140 kts | 249° |
| 2026-05-07 15:05 | 50.90056 | 4.53021 | 321 ft | 140 kts | 250° |
| 2026-05-07 15:05 | 50.89742 | 4.51675 | 194 ft | 136 kts | 250° |
| 2026-05-07 15:05 | 50.89460 | 4.50443 | 176 ft | 103 kts | 249° |
| 2026-05-07 15:06 | 50.89249 | 4.49528 | 176 ft | 58 kts | 250° |
| 2026-05-07 15:06 | 50.89155 | 4.49113 | 176 ft | 24 kts | 257° |
| 2026-05-07 15:06 | 50.89202 | 4.49037 | 175 ft | 6 kts | 18° |
| 2026-05-07 15:06 | 50.89266 | 4.49067 | 170 ft | 0 kts | 15° |
| 2026-05-07 15:07 | 50.89275 | 4.49071 | 169 ft | 6 kts | 14° |
| 2026-05-07 15:07 | 50.89345 | 4.49078 | 166 ft | 12 kts | 335° |
| 2026-05-07 15:07 | 50.89421 | 4.49010 | 161 ft | 15 kts | 6° |
| 2026-05-07 15:08 | 50.89530 | 4.49051 | 157 ft | 18 kts | 14° |
| 2026-05-07 15:08 | 50.89653 | 4.49145 | 152 ft | 21 kts | 24° |
| 2026-05-07 15:08 | 50.89814 | 4.49213 | 143 ft | 27 kts | 14° |
| 2026-05-07 15:08 | 50.89971 | 4.49250 | 134 ft | 13 kts | 317° |
| 2026-05-07 15:09 | 50.89955 | 4.49142 | 135 ft | 9 kts | 245° |
| 2026-05-07 15:09 | 50.89930 | 4.49056 | 136 ft | 13 kts | 245° |
| 2026-05-07 15:09 | 50.89911 | 4.48972 | 136 ft | 4 kts | 282° |
| 2026-05-07 15:09 | 50.89938 | 4.48932 | 134 ft | 7 kts | 333° |
| 2026-05-07 15:10 | 50.89968 | 4.48911 | 132 ft | 1 kts | 336° |
| 2026-05-07 15:10 | 50.89989 | 4.48897 | 127 ft | 4 kts | 335° |
| 2026-05-07 15:10 | 50.89993 | 4.48894 | 127 ft | 0 kts | 335° |
| 2026-05-07 15:11 | 50.89997 | 4.48891 | 127 ft | 0 kts | 335° |